Time;durP1;ratioP1;P1;durP2;ratioP2;P2;SDS_P1;SDS_P2;PMS_P1;PMS_P2;Temp;Humidity;BMP_temperature;BMP_pressure;BME280_temperature;BME280_humidity;BME280_pressure;Samples;Min_cycle;Max_cycle;Signal;HPM_P1;HPM_P2
2023/07/24 00:01:51;;;;;;;7.97;5.57;;;18.00;99.90;;;;;;5042213;28;20029;-70
2023/07/24 00:04:17;;;;;;;8.60;5.97;;;18.00;99.90;;;;;;5042066;28;20029;-69
2023/07/24 00:06:43;;;;;;;8.30;5.72;;;18.00;99.90;;;;;;5041906;28;20028;-69
2023/07/24 00:09:08;;;;;;;7.72;5.57;;;18.00;99.90;;;;;;5042403;28;20029;-70
2023/07/24 00:11:34;;;;;;;9.77;5.97;;;18.00;99.90;;;;;;5041832;28;20115;-71
2023/07/24 00:13:59;;;;;;;13.85;6.25;;;18.00;99.90;;;;;;5041790;28;20030;-72
2023/07/24 00:16:25;;;;;;;8.77;5.68;;;18.00;99.90;;;;;;5041782;28;20052;-72
2023/07/24 00:18:51;;;;;;;10.05;5.82;;;18.10;99.90;;;;;;5040090;28;20030;-72
2023/07/24 00:21:16;;;;;;;8.45;5.85;;;18.00;99.90;;;;;;5041110;28;20029;-71
2023/07/24 00:23:42;;;;;;;10.52;6.30;;;18.00;99.90;;;;;;5041559;28;20029;-70
2023/07/24 00:26:07;;;;;;;8.50;5.78;;;18.00;99.90;;;;;;5041657;28;20371;-71
2023/07/24 00:28:33;;;;;;;11.00;6.30;;;18.00;99.90;;;;;;5041082;28;20081;-73
2023/07/24 00:30:59;;;;;;;8.85;5.90;;;18.00;99.90;;;;;;5040380;28;20036;-70
2023/07/24 00:33:24;;;;;;;10.07;5.97;;;18.00;99.90;;;;;;5041045;28;20056;-72
2023/07/24 00:35:50;;;;;;;11.52;6.22;;;18.00;99.90;;;;;;5041627;28;20057;-73
2023/07/24 00:38:15;;;;;;;9.57;5.70;;;18.00;99.90;;;;;;5041911;28;20363;-71
2023/07/24 00:40:41;;;;;;;8.68;5.60;;;18.00;99.90;;;;;;5041408;28;20040;-72
2023/07/24 00:43:07;;;;;;;8.52;5.88;;;18.00;99.90;;;;;;5041587;28;20049;-71
2023/07/24 00:45:33;;;;;;;8.88;6.20;;;17.90;99.90;;;;;;5040110;28;20028;-70
2023/07/24 00:47:59;;;;;;;12.07;6.55;;;17.90;99.90;;;;;;5040427;28;20043;-69
2023/07/24 00:50:26;;;;;;;9.02;6.35;;;17.90;99.90;;;;;;5040327;28;20025;-71
2023/07/24 00:52:52;;;;;;;10.35;6.00;;;17.90;99.90;;;;;;5041474;28;20049;-71
2023/07/24 00:55:17;;;;;;;12.98;6.28;;;17.80;99.90;;;;;;5041262;28;20036;-72
2023/07/24 00:57:44;;;;;;;8.32;5.60;;;17.90;99.90;;;;;;5041395;28;20047;-71
2023/07/24 01:00:11;;;;;;;8.45;5.72;;;17.90;99.90;;;;;;5041554;28;20049;-73
2023/07/24 01:02:37;;;;;;;8.93;6.10;;;17.80;99.90;;;;;;5040579;28;20049;-72
2023/07/24 01:05:03;;;;;;;10.45;6.07;;;17.80;99.90;;;;;;5039098;28;20037;-71
2023/07/24 01:07:30;;;;;;;10.88;5.93;;;17.80;99.90;;;;;;5040934;28;20060;-71
2023/07/24 01:09:55;;;;;;;8.27;5.80;;;17.70;99.90;;;;;;5039924;28;20029;-71
2023/07/24 01:12:47;;;;;;;14.75;6.00;;;17.70;99.90;;;;;;5041810;28;20052;-71
2023/07/24 01:15:35;;;;;;;8.20;5.57;;;17.70;99.90;;;;;;5037571;28;20067;-72
2023/07/24 01:18:09;;;;;;;12.82;6.30;;;17.70;99.90;;;;;;5041156;28;20390;-72
2023/07/24 01:20:37;;;;;;;10.50;6.30;;;17.70;99.90;;;;;;5039860;28;20077;-72
2023/07/24 01:23:06;;;;;;;11.75;6.90;;;17.70;99.90;;;;;;5040330;28;20180;-71
2023/07/24 01:25:37;;;;;;;13.52;6.18;;;17.70;99.90;;;;;;5040824;28;20025;-72
2023/07/24 01:28:09;;;;;;;10.55;6.05;;;17.70;99.90;;;;;;5041458;28;20081;-71
2023/07/24 01:30:34;;;;;;;10.10;5.97;;;17.60;99.90;;;;;;5041087;28;20043;-72
2023/07/24 01:33:00;;;;;;;13.43;6.82;;;17.60;99.90;;;;;;5041297;28;20057;-70
2023/07/24 01:35:27;;;;;;;10.38;6.50;;;17.60;99.90;;;;;;5041501;28;20040;-71
2023/07/24 01:37:54;;;;;;;13.43;6.18;;;17.60;99.90;;;;;;5041178;28;20018;-72
2023/07/24 01:40:21;;;;;;;9.52;6.28;;;17.60;99.90;;;;;;5045252;28;20116;-73
2023/07/24 01:42:47;;;;;;;10.90;6.60;;;17.60;99.90;;;;;;5044893;28;20033;-73
2023/07/24 01:45:12;;;;;;;9.80;6.20;;;17.60;99.90;;;;;;5042402;28;20021;-71
2023/07/24 01:47:38;;;;;;;10.77;7.00;;;17.60;99.90;;;;;;5044853;28;20025;-68
2023/07/24 01:50:04;;;;;;;13.38;7.47;;;17.60;99.90;;;;;;5044604;28;20030;-70
2023/07/24 01:52:30;;;;;;;12.48;7.60;;;17.50;99.90;;;;;;5042973;28;20708;-70
2023/07/24 01:54:55;;;;;;;12.85;7.38;;;17.50;99.90;;;;;;5044642;28;20041;-72
2023/07/24 01:57:21;;;;;;;11.88;7.85;;;17.60;99.90;;;;;;5044861;28;20022;-69
2023/07/24 01:59:48;;;;;;;12.88;7.93;;;17.50;99.90;;;;;;5043323;28;20045;-70
2023/07/24 02:02:14;;;;;;;13.05;7.97;;;17.50;99.90;;;;;;5043800;28;20018;-70
2023/07/24 02:04:39;;;;;;;14.27;8.27;;;17.50;99.90;;;;;;5043221;28;20098;-73
2023/07/24 02:07:05;;;;;;;13.10;8.40;;;17.50;99.90;;;;;;5043876;28;20077;-72
2023/07/24 02:09:31;;;;;;;12.90;8.68;;;17.50;99.90;;;;;;5044412;28;20029;-70
2023/07/24 02:11:56;;;;;;;13.35;8.35;;;17.50;99.90;;;;;;5042547;28;20111;-72
2023/07/24 02:14:22;;;;;;;17.23;9.07;;;17.50;99.90;;;;;;5042854;28;20029;-72
2023/07/24 02:16:48;;;;;;;14.52;9.60;;;17.50;99.90;;;;;;5042881;28;20121;-71
2023/07/24 02:19:13;;;;;;;16.70;9.38;;;17.50;99.90;;;;;;5043876;28;20763;-70
2023/07/24 02:21:40;;;;;;;14.15;8.45;;;17.40;99.90;;;;;;5044160;28;20024;-71
2023/07/24 02:24:06;;;;;;;12.88;8.90;;;17.40;99.90;;;;;;5043887;28;20026;-70
2023/07/24 02:26:31;;;;;;;14.23;9.20;;;17.40;99.90;;;;;;5043604;28;20032;-73
2023/07/24 02:28:57;;;;;;;13.88;9.30;;;17.40;99.90;;;;;;5043602;28;20025;-73
2023/07/24 02:31:23;;;;;;;11.88;8.65;;;17.40;99.90;;;;;;5042058;28;20518;-72
2023/07/24 02:33:48;;;;;;;13.45;9.32;;;17.40;99.90;;;;;;5043429;28;20037;-70
2023/07/24 02:36:15;;;;;;;13.82;8.82;;;17.40;99.90;;;;;;5043450;28;20036;-71
2023/07/24 02:38:40;;;;;;;15.23;9.00;;;17.40;99.90;;;;;;5043498;28;20033;-73
2023/07/24 02:41:06;;;;;;;13.02;8.98;;;17.40;99.90;;;;;;5043317;28;20478;-73
2023/07/24 02:43:31;;;;;;;15.52;9.13;;;17.40;99.90;;;;;;5042608;28;20041;-73
2023/07/24 02:46:03;;;;;;;15.30;9.57;;;17.40;99.90;;;;;;5041997;28;20025;-72
2023/07/24 02:48:29;;;;;;;13.77;9.50;;;17.40;99.90;;;;;;5043214;28;20037;-73
2023/07/24 02:50:55;;;;;;;16.70;8.43;;;17.40;99.90;;;;;;5042018;28;20052;-71
2023/07/24 02:53:20;;;;;;;15.23;9.15;;;17.40;99.90;;;;;;5043441;28;20025;-71
2023/07/24 02:55:46;;;;;;;15.52;8.73;;;17.40;99.90;;;;;;5043073;28;20123;-71
2023/07/24 02:58:13;;;;;;;13.20;8.35;;;17.40;99.90;;;;;;5042022;28;20032;-71
2023/07/24 03:00:39;;;;;;;15.23;9.05;;;17.40;99.90;;;;;;5042872;28;20022;-71
2023/07/24 03:03:04;;;;;;;16.02;8.70;;;17.40;99.90;;;;;;5042547;28;20048;-71
2023/07/24 03:05:30;;;;;;;15.45;8.60;;;17.40;99.90;;;;;;5042942;28;20025;-71
2023/07/24 03:07:56;;;;;;;13.85;8.43;;;17.40;99.90;;;;;;5043260;28;20021;-72
2023/07/24 03:10:23;;;;;;;14.60;8.27;;;17.40;99.90;;;;;;5042623;28;20029;-70
2023/07/24 03:12:48;;;;;;;14.90;8.50;;;17.40;99.90;;;;;;5043330;28;20041;-71
2023/07/24 03:15:14;;;;;;;13.00;7.60;;;17.40;99.90;;;;;;5041406;28;20025;-71
2023/07/24 03:17:40;;;;;;;14.63;8.45;;;17.40;99.90;;;;;;5042239;28;20514;-72
2023/07/24 03:20:16;;;;;;;14.32;9.45;;;17.40;99.90;;;;;;5042463;28;20378;-71
2023/07/24 03:22:43;;;;;;;14.07;9.80;;;17.40;99.90;;;;;;5042475;28;20033;-71
2023/07/24 03:25:09;;;;;;;16.65;9.68;;;17.40;99.90;;;;;;5041753;28;20450;-71
2023/07/24 03:27:34;;;;;;;14.05;9.32;;;17.40;99.90;;;;;;5041733;28;20062;-71
2023/07/24 03:30:00;;;;;;;16.65;9.65;;;17.30;99.90;;;;;;5040019;28;20034;-72
2023/07/24 03:32:25;;;;;;;17.60;9.88;;;17.30;99.90;;;;;;5041309;28;20029;-71
2023/07/24 03:34:51;;;;;;;16.98;10.07;;;17.30;99.90;;;;;;5041020;28;20112;-72
2023/07/24 03:37:17;;;;;;;16.42;9.73;;;17.20;99.90;;;;;;5040690;28;20017;-71
2023/07/24 03:39:43;;;;;;;14.30;9.43;;;17.20;99.90;;;;;;5042473;28;20030;-71
2023/07/24 03:42:12;;;;;;;18.52;10.48;;;17.20;99.90;;;;;;5042485;28;20033;-71
2023/07/24 03:44:40;;;;;;;21.42;10.52;;;17.20;99.90;;;;;;5040697;28;20035;-71
2023/07/24 03:47:06;;;;;;;17.45;10.60;;;17.20;99.90;;;;;;5040897;28;20100;-72
2023/07/24 03:49:32;;;;;;;21.95;10.32;;;17.10;99.90;;;;;;5042390;28;20052;-72
2023/07/24 03:51:58;;;;;;;19.65;10.80;;;17.20;99.90;;;;;;5042193;28;20040;-71
2023/07/24 03:54:23;;;;;;;20.27;10.48;;;17.20;99.90;;;;;;5042077;28;21432;-72
2023/07/24 03:56:49;;;;;;;19.13;9.77;;;17.20;99.90;;;;;;5042312;28;20045;-70
2023/07/24 03:59:14;;;;;;;17.48;10.45;;;17.20;99.90;;;;;;5042060;28;20021;-72
2023/07/24 04:01:40;;;;;;;19.95;10.85;;;17.20;99.90;;;;;;5041368;28;20060;-72
2023/07/24 04:04:06;;;;;;;16.58;10.48;;;17.10;99.90;;;;;;5041737;28;20039;-71
2023/07/24 04:06:31;;;;;;;19.55;10.60;;;17.10;99.90;;;;;;5042094;28;20025;-72
2023/07/24 04:08:57;;;;;;;21.05;9.95;;;17.10;99.90;;;;;;5041524;28;20025;-72
2023/07/24 04:11:23;;;;;;;19.35;11.20;;;17.10;99.90;;;;;;5042180;28;20033;-70
2023/07/24 04:13:48;;;;;;;15.57;10.52;;;17.10;99.90;;;;;;5041841;28;20026;-70
2023/07/24 04:16:14;;;;;;;17.08;10.05;;;17.20;99.90;;;;;;5041914;28;20030;-70
2023/07/24 04:18:39;;;;;;;20.38;10.07;;;17.20;99.90;;;;;;5040920;28;20029;-71
2023/07/24 04:21:05;;;;;;;18.90;10.27;;;17.20;99.90;;;;;;5041180;28;20057;-70
2023/07/24 04:23:30;;;;;;;18.58;10.13;;;17.20;99.90;;;;;;5041679;28;20040;-69
2023/07/24 04:25:56;;;;;;;17.98;10.07;;;17.20;99.90;;;;;;5039942;28;20037;-71
2023/07/24 04:28:22;;;;;;;18.00;10.18;;;17.20;99.90;;;;;;5039471;28;20383;-70
2023/07/24 04:30:47;;;;;;;16.15;9.45;;;17.30;99.90;;;;;;5041775;28;20025;-70
2023/07/24 04:33:13;;;;;;;16.35;9.60;;;17.30;99.90;;;;;;5040691;28;20029;-70
2023/07/24 04:35:38;;;;;;;15.15;9.18;;;17.30;99.90;;;;;;5040738;28;20033;-70
2023/07/24 04:38:04;;;;;;;17.33;9.15;;;17.40;99.90;;;;;;5041067;28;20032;-70
2023/07/24 04:40:29;;;;;;;17.13;9.13;;;17.40;99.90;;;;;;5038836;28;20052;-70
2023/07/24 04:42:55;;;;;;;15.82;9.65;;;17.40;99.90;;;;;;5040944;28;20033;-70
2023/07/24 04:45:21;;;;;;;13.27;8.55;;;17.40;99.90;;;;;;5039663;28;20132;-70
2023/07/24 04:47:46;;;;;;;15.48;8.45;;;17.50;99.90;;;;;;5039321;28;20024;-69
2023/07/24 04:50:12;;;;;;;16.70;8.82;;;17.50;99.90;;;;;;5039616;28;20025;-70
2023/07/24 04:52:37;;;;;;;11.98;7.93;;;17.60;99.90;;;;;;5040267;28;20041;-70
2023/07/24 04:55:03;;;;;;;14.60;8.27;;;17.60;99.90;;;;;;5039890;28;20375;-70
2023/07/24 04:57:29;;;;;;;13.02;7.75;;;17.60;99.90;;;;;;5039624;28;20060;-70
2023/07/24 04:59:54;;;;;;;11.02;7.65;;;17.60;99.90;;;;;;5040860;28;20018;-70
2023/07/24 05:02:20;;;;;;;11.25;7.38;;;17.70;99.90;;;;;;5040248;28;20030;-70
2023/07/24 05:04:45;;;;;;;13.77;7.85;;;17.70;99.90;;;;;;5041454;28;20022;-70
2023/07/24 05:07:11;;;;;;;11.55;7.38;;;17.70;99.90;;;;;;5041672;28;20030;-70
2023/07/24 05:09:36;;;;;;;13.85;7.03;;;17.70;99.90;;;;;;5040057;28;20028;-70
2023/07/24 05:12:02;;;;;;;12.32;7.07;;;17.70;99.90;;;;;;5039984;28;20176;-70
2023/07/24 05:14:28;;;;;;;11.27;6.75;;;17.70;99.90;;;;;;5043944;28;20018;-70
2023/07/24 05:16:53;;;;;;;9.63;6.13;;;17.70;99.90;;;;;;5043135;28;20102;-71
2023/07/24 05:19:19;;;;;;;13.32;6.90;;;17.70;99.90;;;;;;5044815;28;20048;-71
2023/07/24 05:21:45;;;;;;;11.60;6.85;;;17.70;99.90;;;;;;5044009;28;20060;-71
2023/07/24 05:24:10;;;;;;;8.38;5.80;;;17.70;99.90;;;;;;5043428;28;20037;-70
2023/07/24 05:26:36;;;;;;;9.80;6.82;;;17.60;99.90;;;;;;5044010;28;20026;-70
2023/07/24 05:29:01;;;;;;;9.95;6.45;;;17.70;99.90;;;;;;5044651;28;20022;-71
2023/07/24 05:31:27;;;;;;;9.68;6.60;;;17.60;99.90;;;;;;5044878;28;20104;-71
2023/07/24 05:33:52;;;;;;;12.68;6.85;;;17.60;99.90;;;;;;5043986;28;20036;-70
2023/07/24 05:36:18;;;;;;;13.77;6.72;;;17.60;99.90;;;;;;5044184;28;20022;-71
2023/07/24 05:38:43;;;;;;;11.88;7.00;;;17.60;99.90;;;;;;5043214;28;20039;-70
2023/07/24 05:41:09;;;;;;;11.77;6.80;;;17.70;99.90;;;;;;5043307;28;20045;-71
2023/07/24 05:43:35;;;;;;;9.45;6.47;;;17.70;99.90;;;;;;5043552;28;20509;-70
2023/07/24 05:46:00;;;;;;;11.52;6.55;;;17.70;99.90;;;;;;5043840;28;20021;-71
2023/07/24 05:48:26;;;;;;;9.82;6.45;;;17.70;99.90;;;;;;5044211;28;20076;-70
2023/07/24 05:50:52;;;;;;;9.20;6.05;;;17.70;99.90;;;;;;5044127;28;20109;-70
2023/07/24 05:53:17;;;;;;;11.68;6.20;;;17.70;99.90;;;;;;5044563;28;20021;-70
2023/07/24 05:55:43;;;;;;;9.50;6.50;;;17.70;99.90;;;;;;5042648;28;20038;-69
2023/07/24 05:58:09;;;;;;;9.50;6.60;;;17.70;99.90;;;;;;5042761;28;20068;-70
2023/07/24 06:00:36;;;;;;;9.77;6.53;;;17.80;99.90;;;;;;5042085;28;20032;-70
2023/07/24 06:03:02;;;;;;;9.18;6.47;;;17.70;99.90;;;;;;5042842;28;20065;-70
2023/07/24 06:05:28;;;;;;;12.35;6.75;;;17.80;99.90;;;;;;5044077;28;20029;-71
2023/07/24 06:07:54;;;;;;;13.55;7.72;;;17.70;99.90;;;;;;5044711;28;20483;-70
2023/07/24 06:10:21;;;;;;;15.05;7.10;;;17.70;99.90;;;;;;5044347;28;20048;-71
2023/07/24 06:12:47;;;;;;;12.07;7.00;;;17.70;99.90;;;;;;5042362;28;20127;-70
2023/07/24 06:15:13;;;;;;;11.63;7.07;;;17.70;99.90;;;;;;5043865;28;20028;-70
2023/07/24 06:17:38;;;;;;;10.10;7.10;;;17.80;99.90;;;;;;5043989;28;20029;-70
2023/07/24 06:20:05;;;;;;;11.85;7.40;;;17.80;99.90;;;;;;5043539;28;20048;-70
2023/07/24 06:22:31;;;;;;;9.80;7.18;;;17.80;99.90;;;;;;5044113;28;20037;-69
2023/07/24 06:24:57;;;;;;;12.63;7.13;;;17.80;99.90;;;;;;5041636;28;20029;-72
2023/07/24 06:27:23;;;;;;;10.80;7.32;;;17.80;99.90;;;;;;5041435;28;20457;-69
2023/07/24 06:29:49;;;;;;;11.13;7.25;;;17.80;99.90;;;;;;5043658;28;20033;-70
2023/07/24 06:32:14;;;;;;;12.13;7.72;;;17.80;99.90;;;;;;5042285;28;20040;-70
2023/07/24 06:34:40;;;;;;;12.30;8.05;;;17.90;99.90;;;;;;5043623;28;20025;-70
2023/07/24 06:37:05;;;;;;;10.23;7.20;;;17.80;99.90;;;;;;5043853;28;20026;-70
2023/07/24 06:39:33;;;;;;;13.98;8.25;;;17.90;99.90;;;;;;5043244;28;21715;-70
2023/07/24 06:41:59;;;;;;;11.27;7.38;;;17.90;99.90;;;;;;5042856;28;20088;-70
2023/07/24 06:44:25;;;;;;;11.82;8.43;;;17.80;99.90;;;;;;5043034;28;20087;-70
2023/07/24 06:46:50;;;;;;;11.02;7.47;;;17.90;99.90;;;;;;5040772;28;20576;-70
2023/07/24 06:49:16;;;;;;;11.00;7.57;;;17.90;99.90;;;;;;5042336;28;20026;-70
2023/07/24 06:51:41;;;;;;;11.88;8.45;;;17.90;99.90;;;;;;5043156;28;20128;-71
2023/07/24 06:54:07;;;;;;;15.00;9.02;;;17.90;99.90;;;;;;5042338;28;20036;-69
2023/07/24 06:56:33;;;;;;;12.05;7.93;;;17.90;99.90;;;;;;5041255;28;20034;-70
2023/07/24 06:58:58;;;;;;;14.10;8.18;;;17.90;99.90;;;;;;5039359;28;20041;-71
2023/07/24 07:01:24;;;;;;;13.63;8.60;;;17.90;99.90;;;;;;5041621;28;20051;-71
2023/07/24 07:03:49;;;;;;;11.00;8.27;;;17.90;99.90;;;;;;5038969;28;20060;-70
2023/07/24 07:06:15;;;;;;;12.25;8.60;;;17.90;99.90;;;;;;5042777;28;20022;-70
2023/07/24 07:08:41;;;;;;;13.18;8.68;;;17.90;99.90;;;;;;5041485;28;20683;-70
2023/07/24 07:11:06;;;;;;;12.88;8.75;;;17.90;99.90;;;;;;5042473;28;20064;-70
2023/07/24 07:13:32;;;;;;;13.43;8.98;;;17.90;99.90;;;;;;5043283;28;20029;-69
2023/07/24 07:15:58;;;;;;;12.23;8.98;;;17.90;99.90;;;;;;5041279;28;20025;-70
2023/07/24 07:18:23;;;;;;;12.32;9.10;;;17.90;99.90;;;;;;5055992;28;20037;-70
2023/07/24 07:20:50;;;;;;;13.77;10.00;;;17.90;99.90;;;;;;5041026;28;20018;-69
2023/07/24 07:23:16;;;;;;;15.00;9.32;;;17.80;99.90;;;;;;5041552;28;20045;-70
2023/07/24 07:25:45;;;;;;;17.00;9.73;;;17.80;99.90;;;;;;5042883;28;20093;-69
2023/07/24 07:28:12;;;;;;;15.70;9.57;;;17.80;99.90;;;;;;5041343;28;20081;-69
2023/07/24 07:30:37;;;;;;;15.40;10.27;;;17.80;99.90;;;;;;5042381;28;21464;-70
2023/07/24 07:33:05;;;;;;;15.02;9.85;;;17.90;99.90;;;;;;5042592;28;20022;-69
2023/07/24 07:35:34;;;;;;;14.63;9.13;;;17.90;99.90;;;;;;5039349;28;20035;-69
2023/07/24 07:38:00;;;;;;;17.08;10.07;;;17.90;99.90;;;;;;5040747;28;20033;-69
2023/07/24 07:40:26;;;;;;;16.52;9.90;;;18.00;99.90;;;;;;5041907;28;20060;-71
2023/07/24 07:42:53;;;;;;;14.30;10.00;;;18.00;99.90;;;;;;5041225;28;20033;-70
2023/07/24 07:45:19;;;;;;;13.63;9.25;;;18.00;99.90;;;;;;5038862;28;20025;-70
2023/07/24 07:47:44;;;;;;;13.48;9.30;;;18.00;99.90;;;;;;5041437;28;20033;-70
2023/07/24 07:50:10;;;;;;;14.02;9.63;;;18.10;99.90;;;;;;5038794;28;20065;-69
2023/07/24 07:52:36;;;;;;;15.10;10.35;;;18.10;99.90;;;;;;5036394;28;20140;-70
2023/07/24 07:55:02;;;;;;;12.48;9.23;;;18.10;99.90;;;;;;5037510;28;20567;-70
2023/07/24 07:57:27;;;;;;;13.30;9.57;;;18.10;99.90;;;;;;5040031;28;20027;-71
2023/07/24 07:59:53;;;;;;;15.02;9.85;;;18.20;99.90;;;;;;5039669;28;20018;-70
2023/07/24 08:02:19;;;;;;;14.30;9.98;;;18.30;99.90;;;;;;5041566;28;20034;-69
2023/07/24 08:04:44;;;;;;;13.48;9.73;;;18.30;99.90;;;;;;5040006;28;20033;-70
2023/07/24 08:07:10;;;;;;;13.55;9.07;;;18.30;99.90;;;;;;5037504;28;20085;-70
2023/07/24 08:09:37;;;;;;;12.50;9.63;;;18.40;99.90;;;;;;5041307;28;20028;-71
2023/07/24 08:12:04;;;;;;;14.18;10.23;;;18.40;99.90;;;;;;5039618;28;20108;-71
2023/07/24 08:14:30;;;;;;;16.08;10.75;;;18.40;99.90;;;;;;5039594;28;20029;-68
2023/07/24 08:16:56;;;;;;;15.00;10.70;;;18.40;99.90;;;;;;5040672;28;20482;-72
2023/07/24 08:19:21;;;;;;;16.65;10.90;;;18.50;99.90;;;;;;5042064;28;20040;-71
2023/07/24 08:21:47;;;;;;;17.23;10.57;;;18.60;99.90;;;;;;5041828;28;20025;-70
2023/07/24 08:24:13;;;;;;;14.73;10.05;;;18.60;99.90;;;;;;5040901;28;20045;-69
2023/07/24 08:26:38;;;;;;;17.02;10.30;;;18.60;99.90;;;;;;5041503;28;20021;-69
2023/07/24 08:29:05;;;;;;;13.98;9.90;;;18.70;99.90;;;;;;5040689;28;20034;-70
2023/07/24 08:31:30;;;;;;;16.88;10.65;;;18.70;99.90;;;;;;5037446;28;20021;-69
2023/07/24 08:33:56;;;;;;;15.02;10.80;;;18.70;99.90;;;;;;5040159;28;20025;-70
2023/07/24 08:36:22;;;;;;;14.13;10.43;;;18.70;99.90;;;;;;5039488;28;20048;-70
2023/07/24 08:38:47;;;;;;;15.88;10.68;;;18.80;99.90;;;;;;5041214;28;20052;-70
2023/07/24 08:41:14;;;;;;;13.82;10.10;;;18.80;99.90;;;;;;5040896;28;20048;-70
2023/07/24 08:43:42;;;;;;;15.50;11.27;;;18.80;99.90;;;;;;5038843;28;20038;-71
2023/07/24 08:46:08;;;;;;;16.80;10.98;;;18.80;99.90;;;;;;5039737;28;20021;-71
2023/07/24 08:48:39;;;;;;;15.73;10.35;;;18.90;99.90;;;;;;5041984;28;20028;-72
2023/07/24 08:51:10;;;;;;;14.88;10.90;;;18.80;99.90;;;;;;5045674;28;20081;-69
2023/07/24 08:53:38;;;;;;;15.63;10.75;;;18.80;99.90;;;;;;5045421;28;20044;-69
2023/07/24 08:56:06;;;;;;;15.30;10.63;;;18.90;99.90;;;;;;5043693;28;20029;-70
2023/07/24 08:58:32;;;;;;;15.18;10.48;;;18.80;99.90;;;;;;5045139;28;20370;-71
2023/07/24 09:00:59;;;;;;;14.60;10.43;;;18.80;99.90;;;;;;5043863;28;20049;-71
2023/07/24 09:03:25;;;;;;;14.98;10.52;;;18.80;99.90;;;;;;5044260;28;20091;-73
2023/07/24 09:05:51;;;;;;;13.85;10.98;;;18.80;99.90;;;;;;5042713;28;20029;-70
2023/07/24 09:08:17;;;;;;;15.65;10.35;;;18.80;99.90;;;;;;5044909;28;21395;-70
2023/07/24 09:10:42;;;;;;;15.27;10.57;;;18.90;99.90;;;;;;5044717;28;20029;-71
2023/07/24 09:13:11;;;;;;;15.65;10.88;;;19.00;99.90;;;;;;5043857;28;20303;-70
2023/07/24 09:15:42;;;;;;;14.25;10.55;;;19.10;99.90;;;;;;5044709;28;20018;-71
2023/07/24 09:18:07;;;;;;;15.50;10.20;;;19.20;99.90;;;;;;5043777;28;20060;-69
2023/07/24 09:20:41;;;;;;;13.55;9.93;;;19.30;99.90;;;;;;5043753;28;20025;-70
2023/07/24 09:23:08;;;;;;;17.98;11.63;;;19.30;99.90;;;;;;5043295;28;20033;-71
2023/07/24 09:25:36;;;;;;;15.35;10.48;;;19.40;99.90;;;;;;5044959;28;20021;-71
2023/07/24 09:28:10;;;;;;;15.57;10.38;;;19.40;99.90;;;;;;5043844;28;20041;-71
2023/07/24 09:30:35;;;;;;;14.75;9.90;;;19.40;99.90;;;;;;5039526;28;20107;-71
2023/07/24 09:33:01;;;;;;;12.57;9.55;;;19.40;99.90;;;;;;5043097;28;20418;-72
2023/07/24 09:35:28;;;;;;;14.25;9.93;;;19.40;99.90;;;;;;5043385;28;20117;-71
2023/07/24 09:38:08;;;;;;;14.00;9.27;;;19.40;99.90;;;;;;5043774;28;20029;-70
2023/07/24 09:40:45;;;;;;;13.00;9.55;;;19.40;99.90;;;;;;5043624;28;20431;-71
2023/07/24 09:43:27;;;;;;;11.90;9.32;;;19.40;99.90;;;;;;5043653;28;20378;-71
2023/07/24 09:45:54;;;;;;;12.90;9.23;;;19.50;99.90;;;;;;5044001;28;20033;-71
2023/07/24 09:48:22;;;;;;;15.68;9.57;;;19.50;99.90;;;;;;5042587;28;20017;-71
2023/07/24 09:50:49;;;;;;;13.90;9.60;;;19.50;99.90;;;;;;5039040;28;20033;-71
2023/07/24 09:53:38;;;;;;;14.70;10.35;;;19.60;99.90;;;;;;5042632;28;20038;-71
2023/07/24 09:56:06;;;;;;;12.82;9.65;;;19.60;99.90;;;;;;5043765;28;20033;-72
2023/07/24 09:58:39;;;;;;;12.30;9.32;;;19.60;99.90;;;;;;5042684;28;20028;-69
2023/07/24 10:01:07;;;;;;;12.15;9.15;;;19.70;99.90;;;;;;5041800;28;20025;-70
2023/07/24 10:03:40;;;;;;;12.27;9.23;;;19.80;99.90;;;;;;5041999;28;20041;-71
2023/07/24 10:06:10;;;;;;;12.73;9.40;;;19.90;99.90;;;;;;5038819;28;20033;-70
2023/07/24 10:08:36;;;;;;;11.68;9.00;;;19.80;99.90;;;;;;5041177;28;20025;-69
2023/07/24 10:11:02;;;;;;;16.25;9.00;;;19.90;99.90;;;;;;5035392;28;20026;-69
2023/07/24 10:13:29;;;;;;;12.00;8.57;;;19.80;99.90;;;;;;5043217;28;20040;-69
2023/07/24 10:15:55;;;;;;;13.82;8.68;;;19.80;99.90;;;;;;5042321;28;20049;-69
2023/07/24 10:18:27;;;;;;;11.43;8.27;;;19.70;99.90;;;;;;5043873;28;20017;-70
2023/07/24 10:21:01;;;;;;;13.90;8.80;;;19.70;99.90;;;;;;5043681;28;20576;-71
2023/07/24 10:23:27;;;;;;;10.35;8.27;;;19.70;99.90;;;;;;5043631;28;20033;-69
2023/07/24 10:25:52;;;;;;;12.23;8.85;;;19.80;99.90;;;;;;5043267;28;20041;-70
2023/07/24 10:28:18;;;;;;;11.80;8.27;;;19.90;99.90;;;;;;5043724;28;20022;-68
2023/07/24 10:30:44;;;;;;;13.20;8.68;;;19.80;99.90;;;;;;5043315;28;20028;-69
2023/07/24 10:33:13;;;;;;;11.48;8.35;;;19.80;99.90;;;;;;5043818;28;20022;-68
2023/07/24 10:35:40;;;;;;;11.35;8.07;;;20.00;99.90;;;;;;5043736;28;20030;-69
2023/07/24 10:38:06;;;;;;;9.73;7.22;;;20.20;99.90;;;;;;5042859;28;20037;-69
2023/07/24 10:40:33;;;;;;;11.88;7.53;;;20.40;99.90;;;;;;5039088;28;20521;-70
2023/07/24 10:43:06;;;;;;;10.27;7.22;;;20.50;99.90;;;;;;5040384;28;20041;-69
2023/07/24 10:45:53;;;;;;;10.57;7.13;;;20.80;99.90;;;;;;5041667;28;20029;-70
2023/07/24 10:48:20;;;;;;;9.68;7.78;;;21.00;99.90;;;;;;5039623;28;20032;-68
2023/07/24 10:50:51;;;;;;;10.50;7.70;;;21.20;99.90;;;;;;5039320;28;20037;-69
2023/07/24 10:53:21;;;;;;;8.55;7.03;;;21.40;99.90;;;;;;5035684;28;20037;-69
2023/07/24 10:55:47;;;;;;;11.15;6.78;;;21.40;99.90;;;;;;5042484;28;20071;-71
2023/07/24 10:58:14;;;;;;;8.90;6.95;;;21.40;99.90;;;;;;5041035;28;20032;-69
2023/07/24 11:00:43;;;;;;;13.05;7.70;;;21.50;99.90;;;;;;5043167;28;20021;-70
2023/07/24 11:03:14;;;;;;;9.77;7.47;;;21.70;99.90;;;;;;5042771;28;20037;-68
2023/07/24 11:05:40;;;;;;;10.05;7.18;;;21.70;99.90;;;;;;5042756;28;20068;-69
2023/07/24 11:08:14;;;;;;;10.93;7.88;;;21.50;99.90;;;;;;5042769;28;20104;-70
2023/07/24 11:10:50;;;;;;;;;;;21.40;99.90;;;;;;5042392;28;20093;-69
2023/07/24 11:13:24;;;;;;;9.48;7.53;;;21.20;99.90;;;;;;5039369;28;19940;-71
2023/07/24 11:15:51;;;;;;;10.68;7.70;;;21.10;99.90;;;;;;5038663;28;20042;-69
2023/07/24 11:18:20;;;;;;;10.38;8.38;;;21.00;99.90;;;;;;5040191;28;20029;-69
2023/07/24 11:20:48;;;;;;;11.45;8.02;;;21.00;99.90;;;;;;5041041;28;20048;-70
2023/07/24 11:23:14;;;;;;;11.27;8.00;;;21.10;99.90;;;;;;5040436;28;20041;-70
2023/07/24 11:25:40;;;;;;;11.27;8.50;;;21.30;99.90;;;;;;5040509;28;20100;-71
2023/07/24 11:28:08;;;;;;;10.65;8.05;;;21.50;99.90;;;;;;5041325;28;20025;-70
2023/07/24 11:30:34;;;;;;;10.82;8.07;;;21.70;99.90;;;;;;5040820;28;20027;-69
2023/07/24 11:33:03;;;;;;;11.25;8.15;;;21.80;99.90;;;;;;5041498;28;20026;-69
2023/07/24 11:35:30;;;;;;;13.30;8.50;;;22.10;99.90;;;;;;5042627;28;20069;-68
2023/07/24 11:37:55;;;;;;;9.57;7.82;;;22.30;99.90;;;;;;5041805;28;20029;-71
2023/07/24 11:40:29;;;;;;;9.73;7.35;;;22.40;99.90;;;;;;5041027;28;20368;-71
2023/07/24 11:42:55;;;;;;;9.48;7.68;;;22.50;99.90;;;;;;5042594;28;20048;-71
2023/07/24 11:45:21;;;;;;;10.85;7.15;;;22.50;99.90;;;;;;5042310;28;20017;-69
2023/07/24 11:47:53;;;;;;;9.80;6.55;;;22.70;99.90;;;;;;5041261;28;20085;-69
2023/07/24 11:50:19;;;;;;;8.35;6.75;;;22.70;99.90;;;;;;5041832;28;20732;-70
2023/07/24 11:52:47;;;;;;;8.13;6.85;;;22.70;99.90;;;;;;5042261;28;20107;-69
2023/07/24 11:55:18;;;;;;;10.38;7.40;;;22.70;99.90;;;;;;5041753;28;20805;-69
2023/07/24 11:57:57;;;;;;;10.90;8.35;;;22.80;99.90;;;;;;5042042;28;20375;-70
2023/07/24 12:00:23;;;;;;;11.93;7.53;;;22.90;99.90;;;;;;5041563;28;20057;-69
2023/07/24 12:02:49;;;;;;;9.65;7.10;;;22.90;99.90;;;;;;5039950;28;20103;-69
2023/07/24 12:05:15;;;;;;;10.15;6.97;;;23.00;99.90;;;;;;5041024;28;20044;-68
2023/07/24 12:07:43;;;;;;;8.73;6.55;;;22.90;99.90;;;;;;5041426;28;20116;-69
2023/07/24 12:10:09;;;;;;;9.35;6.50;;;22.90;99.90;;;;;;5041704;28;20509;-68
2023/07/24 12:12:45;;;;;;;8.25;6.38;;;23.00;99.90;;;;;;5042050;28;20118;-69
2023/07/24 12:15:11;;;;;;;8.25;6.50;;;23.10;99.90;;;;;;5041379;28;20025;-68
2023/07/24 12:17:38;;;;;;;8.93;6.78;;;23.30;99.90;;;;;;5042048;28;20026;-70
2023/07/24 12:20:05;;;;;;;8.77;6.53;;;23.40;99.90;;;;;;5039960;28;20033;-69
2023/07/24 12:22:32;;;;;;;11.05;7.00;;;23.40;99.90;;;;;;5041253;28;20026;-70
2023/07/24 12:24:58;;;;;;;8.65;6.65;;;23.50;99.90;;;;;;5041605;28;20021;-72
2023/07/24 12:27:24;;;;;;;7.72;6.75;;;23.50;99.90;;;;;;5041372;28;20057;-71
2023/07/24 12:29:51;;;;;;;10.43;6.68;;;23.40;99.90;;;;;;5040921;28;20394;-70
2023/07/24 12:32:17;;;;;;;8.18;6.47;;;23.40;99.90;;;;;;5039534;28;20068;-71
2023/07/24 12:34:43;;;;;;;7.63;6.38;;;23.50;99.90;;;;;;5039809;28;20064;-69
2023/07/24 12:37:09;;;;;;;8.10;6.82;;;23.60;99.90;;;;;;5040969;28;20032;-70